sensor_id;sensor_type;location;lat;lon;timestamp;temperature;humidity
41116;DHT22;26861;51.824;4.682;2024-03-17T00:00:30;17.30;57.80
41116;DHT22;26861;51.824;4.682;2024-03-17T00:02:55;17.50;57.90
41116;DHT22;26861;51.824;4.682;2024-03-17T00:05:21;17.40;58.30
41116;DHT22;26861;51.824;4.682;2024-03-17T00:07:47;17.40;58.20
41116;DHT22;26861;51.824;4.682;2024-03-17T00:10:12;17.30;58.40
41116;DHT22;26861;51.824;4.682;2024-03-17T00:12:38;17.30;58.10
41116;DHT22;26861;51.824;4.682;2024-03-17T00:15:04;17.30;58.30
41116;DHT22;26861;51.824;4.682;2024-03-17T00:17:30;17.40;56.90
41116;DHT22;26861;51.824;4.682;2024-03-17T00:19:55;17.40;58.30
41116;DHT22;26861;51.824;4.682;2024-03-17T00:22:22;17.30;58.20
41116;DHT22;26861;51.824;4.682;2024-03-17T00:24:47;17.30;58.60
41116;DHT22;26861;51.824;4.682;2024-03-17T00:27:13;17.40;58.40
41116;DHT22;26861;51.824;4.682;2024-03-17T00:29:39;17.30;58.50
41116;DHT22;26861;51.824;4.682;2024-03-17T00:32:04;17.30;58.40
41116;DHT22;26861;51.824;4.682;2024-03-17T00:34:31;17.30;57.60
41116;DHT22;26861;51.824;4.682;2024-03-17T00:36:57;17.30;58.40
41116;DHT22;26861;51.824;4.682;2024-03-17T00:39:22;17.30;58.60
41116;DHT22;26861;51.824;4.682;2024-03-17T00:41:48;17.30;58.30
41116;DHT22;26861;51.824;4.682;2024-03-17T00:44:14;17.30;58.30
41116;DHT22;26861;51.824;4.682;2024-03-17T00:46:39;17.30;58.60
41116;DHT22;26861;51.824;4.682;2024-03-17T00:49:08;17.30;58.50
41116;DHT22;26861;51.824;4.682;2024-03-17T00:51:34;17.30;58.30
41116;DHT22;26861;51.824;4.682;2024-03-17T00:53:59;17.30;58.40
41116;DHT22;26861;51.824;4.682;2024-03-17T00:56:25;17.30;58.30
41116;DHT22;26861;51.824;4.682;2024-03-17T00:58:50;17.30;58.40
41116;DHT22;26861;51.824;4.682;2024-03-17T01:01:17;17.40;58.40
41116;DHT22;26861;51.824;4.682;2024-03-17T01:03:44;17.30;58.90
41116;DHT22;26861;51.824;4.682;2024-03-17T01:06:10;17.00;58.20
41116;DHT22;26861;51.824;4.682;2024-03-17T01:08:36;17.30;58.40
41116;DHT22;26861;51.824;4.682;2024-03-17T01:11:01;17.40;58.30
41116;DHT22;26861;51.824;4.682;2024-03-17T01:13:28;17.40;58.50
41116;DHT22;26861;51.824;4.682;2024-03-17T01:15:53;17.20;58.20
41116;DHT22;26861;51.824;4.682;2024-03-17T01:18:19;17.30;58.10
41116;DHT22;26861;51.824;4.682;2024-03-17T01:20:45;17.30;58.50
41116;DHT22;26861;51.824;4.682;2024-03-17T01:23:11;17.30;58.20
41116;DHT22;26861;51.824;4.682;2024-03-17T01:25:36;17.30;58.50
41116;DHT22;26861;51.824;4.682;2024-03-17T01:28:03;17.40;58.30
41116;DHT22;26861;51.824;4.682;2024-03-17T01:30:28;17.30;58.10
41116;DHT22;26861;51.824;4.682;2024-03-17T01:32:54;17.40;57.60
41116;DHT22;26861;51.824;4.682;2024-03-17T01:35:20;17.30;58.20
41116;DHT22;26861;51.824;4.682;2024-03-17T01:37:46;17.30;58.30
41116;DHT22;26861;51.824;4.682;2024-03-17T01:40:11;17.30;58.60
41116;DHT22;26861;51.824;4.682;2024-03-17T01:42:40;17.30;58.30
41116;DHT22;26861;51.824;4.682;2024-03-17T01:47:41;17.10;55.10
41116;DHT22;26861;51.824;4.682;2024-03-17T01:50:07;17.20;58.70
41116;DHT22;26861;51.824;4.682;2024-03-17T01:52:34;17.30;57.60
41116;DHT22;26861;51.824;4.682;2024-03-17T01:54:59;17.30;58.90
41116;DHT22;26861;51.824;4.682;2024-03-17T01:57:25;17.20;58.50
41116;DHT22;26861;51.824;4.682;2024-03-17T01:59:51;17.70;59.10
41116;DHT22;26861;51.824;4.682;2024-03-17T02:02:17;17.40;58.40
41116;DHT22;26861;51.824;4.682;2024-03-17T02:04:42;17.20;59.00
41116;DHT22;26861;51.824;4.682;2024-03-17T02:07:10;17.30;58.80
41116;DHT22;26861;51.824;4.682;2024-03-17T02:09:36;17.30;59.20
41116;DHT22;26861;51.824;4.682;2024-03-17T02:12:01;17.30;58.70
41116;DHT22;26861;51.824;4.682;2024-03-17T02:14:27;17.40;58.60
41116;DHT22;26861;51.824;4.682;2024-03-17T02:16:53;17.20;58.90
41116;DHT22;26861;51.824;4.682;2024-03-17T02:19:18;17.30;59.50
41116;DHT22;26861;51.824;4.682;2024-03-17T02:21:44;17.30;58.80
41116;DHT22;26861;51.824;4.682;2024-03-17T02:24:10;17.30;59.10
41116;DHT22;26861;51.824;4.682;2024-03-17T02:26:35;17.30;58.80
41116;DHT22;26861;51.824;4.682;2024-03-17T02:29:02;17.30;58.90
41116;DHT22;26861;51.824;4.682;2024-03-17T02:31:27;17.30;58.80
41116;DHT22;26861;51.824;4.682;2024-03-17T02:33:53;17.30;59.10
41116;DHT22;26861;51.824;4.682;2024-03-17T02:36:18;17.30;58.90
41116;DHT22;26861;51.824;4.682;2024-03-17T02:38:44;17.20;58.90
41116;DHT22;26861;51.824;4.682;2024-03-17T02:41:28;17.20;56.60
41116;DHT22;26861;51.824;4.682;2024-03-17T02:43:54;17.20;58.80
41116;DHT22;26861;51.824;4.682;2024-03-17T02:46:19;17.30;59.00
41116;DHT22;26861;51.824;4.682;2024-03-17T02:48:46;17.30;58.80
41116;DHT22;26861;51.824;4.682;2024-03-17T02:51:15;19.20;59.90
41116;DHT22;26861;51.824;4.682;2024-03-17T02:53:44;17.20;58.90
41116;DHT22;26861;51.824;4.682;2024-03-17T02:56:13;17.30;55.80
41116;DHT22;26861;51.824;4.682;2024-03-17T02:58:41;17.20;59.10
41116;DHT22;26861;51.824;4.682;2024-03-17T03:01:07;17.30;58.40
41116;DHT22;26861;51.824;4.682;2024-03-17T03:03:35;17.20;59.10
41116;DHT22;26861;51.824;4.682;2024-03-17T03:06:01;17.20;59.20
41116;DHT22;26861;51.824;4.682;2024-03-17T03:08:29;17.20;58.80
41116;DHT22;26861;51.824;4.682;2024-03-17T03:10:55;17.50;59.30
41116;DHT22;26861;51.824;4.682;2024-03-17T03:13:20;17.20;58.90
41116;DHT22;26861;51.824;4.682;2024-03-17T03:15:47;17.20;58.80
41116;DHT22;26861;51.824;4.682;2024-03-17T03:18:14;17.20;58.90
41116;DHT22;26861;51.824;4.682;2024-03-17T03:20:40;17.20;59.10
41116;DHT22;26861;51.824;4.682;2024-03-17T03:23:06;17.20;58.90
41116;DHT22;26861;51.824;4.682;2024-03-17T03:25:32;17.20;58.40
41116;DHT22;26861;51.824;4.682;2024-03-17T03:27:58;17.20;58.80
41116;DHT22;26861;51.824;4.682;2024-03-17T03:30:24;17.20;58.60
41116;DHT22;26861;51.824;4.682;2024-03-17T03:32:50;17.20;59.10
41116;DHT22;26861;51.824;4.682;2024-03-17T03:35:16;17.20;58.90
41116;DHT22;26861;51.824;4.682;2024-03-17T03:37:42;17.20;59.10
41116;DHT22;26861;51.824;4.682;2024-03-17T03:40:08;17.10;58.90
41116;DHT22;26861;51.824;4.682;2024-03-17T03:42:44;17.10;58.40
41116;DHT22;26861;51.824;4.682;2024-03-17T03:45:11;17.20;58.90
41116;DHT22;26861;51.824;4.682;2024-03-17T03:47:43;17.20;57.90
41116;DHT22;26861;51.824;4.682;2024-03-17T03:50:14;17.20;55.60
41116;DHT22;26861;51.824;4.682;2024-03-17T03:52:40;17.10;58.90
41116;DHT22;26861;51.824;4.682;2024-03-17T03:55:07;17.70;59.10
41116;DHT22;26861;51.824;4.682;2024-03-17T03:57:36;17.10;58.60
41116;DHT22;26861;51.824;4.682;2024-03-17T04:00:02;17.10;58.80
41116;DHT22;26861;51.824;4.682;2024-03-17T04:02:38;17.20;58.40
41116;DHT22;26861;51.824;4.682;2024-03-17T04:05:04;17.20;59.20
41116;DHT22;26861;51.824;4.682;2024-03-17T04:07:30;17.20;58.70
41116;DHT22;26861;51.824;4.682;2024-03-17T04:09:56;17.10;58.90
41116;DHT22;26861;51.824;4.682;2024-03-17T04:12:23;17.10;58.70
41116;DHT22;26861;51.824;4.682;2024-03-17T04:14:50;17.10;59.00
41116;DHT22;26861;51.824;4.682;2024-03-17T04:17:19;17.10;59.00
41116;DHT22;26861;51.824;4.682;2024-03-17T04:19:47;17.10;59.30
41116;DHT22;26861;51.824;4.682;2024-03-17T04:22:14;17.10;58.70
41116;DHT22;26861;51.824;4.682;2024-03-17T04:24:40;17.10;58.90
41116;DHT22;26861;51.824;4.682;2024-03-17T04:27:06;17.10;58.70
41116;DHT22;26861;51.824;4.682;2024-03-17T04:29:33;17.10;59.00
41116;DHT22;26861;51.824;4.682;2024-03-17T04:31:59;17.00;58.90
41116;DHT22;26861;51.824;4.682;2024-03-17T04:34:29;17.00;58.70
41116;DHT22;26861;51.824;4.682;2024-03-17T04:36:55;17.10;58.50
41116;DHT22;26861;51.824;4.682;2024-03-17T04:39:21;17.10;58.90
41116;DHT22;26861;51.824;4.682;2024-03-17T04:41:47;17.10;58.80
41116;DHT22;26861;51.824;4.682;2024-03-17T04:44:13;17.00;58.90
41116;DHT22;26861;51.824;4.682;2024-03-17T04:46:39;17.60;59.00
41116;DHT22;26861;51.824;4.682;2024-03-17T04:49:06;17.00;59.00
41116;DHT22;26861;51.824;4.682;2024-03-17T04:51:31;17.00;59.00
41116;DHT22;26861;51.824;4.682;2024-03-17T04:54:01;17.00;56.60
41116;DHT22;26861;51.824;4.682;2024-03-17T04:56:29;17.00;59.30
41116;DHT22;26861;51.824;4.682;2024-03-17T04:58:55;17.10;59.50
41116;DHT22;26861;51.824;4.682;2024-03-17T05:01:21;17.10;58.70
41116;DHT22;26861;51.824;4.682;2024-03-17T05:03:48;17.00;59.40
41116;DHT22;26861;51.824;4.682;2024-03-17T05:06:16;17.00;59.40
41116;DHT22;26861;51.824;4.682;2024-03-17T05:08:42;17.20;59.30
41116;DHT22;26861;51.824;4.682;2024-03-17T05:11:09;17.00;59.30
41116;DHT22;26861;51.824;4.682;2024-03-17T05:13:35;17.00;59.00
41116;DHT22;26861;51.824;4.682;2024-03-17T05:16:02;17.00;59.70
41116;DHT22;26861;51.824;4.682;2024-03-17T05:18:29;17.00;59.30
41116;DHT22;26861;51.824;4.682;2024-03-17T05:21:02;17.00;59.50
41116;DHT22;26861;51.824;4.682;2024-03-17T05:23:30;17.00;55.90
41116;DHT22;26861;51.824;4.682;2024-03-17T05:25:56;18.10;60.10
41116;DHT22;26861;51.824;4.682;2024-03-17T05:28:26;17.00;59.40
41116;DHT22;26861;51.824;4.682;2024-03-17T05:30:53;17.00;59.50
41116;DHT22;26861;51.824;4.682;2024-03-17T05:33:19;16.90;59.10
41116;DHT22;26861;51.824;4.682;2024-03-17T05:35:49;17.00;59.60
41116;DHT22;26861;51.824;4.682;2024-03-17T05:38:27;16.90;55.80
41116;DHT22;26861;51.824;4.682;2024-03-17T05:41:13;17.00;55.90
41116;DHT22;26861;51.824;4.682;2024-03-17T05:43:38;17.00;59.80
41116;DHT22;26861;51.824;4.682;2024-03-17T05:48:40;16.90;59.20
41116;DHT22;26861;51.824;4.682;2024-03-17T05:51:06;16.90;59.30
41116;DHT22;26861;51.824;4.682;2024-03-17T05:53:32;16.90;59.50
41116;DHT22;26861;51.824;4.682;2024-03-17T05:56:01;16.90;59.40
41116;DHT22;26861;51.824;4.682;2024-03-17T05:58:27;16.90;56.30
41116;DHT22;26861;51.824;4.682;2024-03-17T06:00:52;16.90;59.20
41116;DHT22;26861;51.824;4.682;2024-03-17T06:03:18;17.00;59.00
41116;DHT22;26861;51.824;4.682;2024-03-17T06:05:44;16.90;59.30
41116;DHT22;26861;51.824;4.682;2024-03-17T06:08:11;17.00;59.40
41116;DHT22;26861;51.824;4.682;2024-03-17T06:10:37;16.90;59.20
41116;DHT22;26861;51.824;4.682;2024-03-17T06:13:03;17.00;59.30
41116;DHT22;26861;51.824;4.682;2024-03-17T06:15:31;16.90;58.70
41116;DHT22;26861;51.824;4.682;2024-03-17T06:17:57;15.70;55.20
41116;DHT22;26861;51.824;4.682;2024-03-17T06:20:23;16.90;59.40
41116;DHT22;26861;51.824;4.682;2024-03-17T06:22:50;16.80;59.10
41116;DHT22;26861;51.824;4.682;2024-03-17T06:25:15;16.90;59.20
41116;DHT22;26861;51.824;4.682;2024-03-17T06:27:41;16.90;58.60
41116;DHT22;26861;51.824;4.682;2024-03-17T06:30:16;16.80;58.90
41116;DHT22;26861;51.824;4.682;2024-03-17T06:32:42;16.90;58.90
41116;DHT22;26861;51.824;4.682;2024-03-17T06:35:10;16.90;59.50
41116;DHT22;26861;51.824;4.682;2024-03-17T06:37:36;16.90;59.60
41116;DHT22;26861;51.824;4.682;2024-03-17T06:40:02;16.90;59.50
41116;DHT22;26861;51.824;4.682;2024-03-17T06:42:29;16.90;59.40
41116;DHT22;26861;51.824;4.682;2024-03-17T06:44:55;16.90;59.30
41116;DHT22;26861;51.824;4.682;2024-03-17T06:47:20;16.90;59.60
41116;DHT22;26861;51.824;4.682;2024-03-17T06:49:46;16.90;59.20
41116;DHT22;26861;51.824;4.682;2024-03-17T06:52:11;16.90;59.00
41116;DHT22;26861;51.824;4.682;2024-03-17T06:54:37;16.90;59.40
41116;DHT22;26861;51.824;4.682;2024-03-17T06:57:02;16.80;59.10
41116;DHT22;26861;51.824;4.682;2024-03-17T06:59:28;17.00;59.10
41116;DHT22;26861;51.824;4.682;2024-03-17T07:01:53;17.00;58.80
41116;DHT22;26861;51.824;4.682;2024-03-17T07:04:19;16.90;59.20
41116;DHT22;26861;51.824;4.682;2024-03-17T07:06:46;16.80;59.10
41116;DHT22;26861;51.824;4.682;2024-03-17T07:09:12;16.90;59.30
41116;DHT22;26861;51.824;4.682;2024-03-17T07:11:37;16.80;59.20
41116;DHT22;26861;51.824;4.682;2024-03-17T07:14:03;16.80;59.40
41116;DHT22;26861;51.824;4.682;2024-03-17T07:16:29;16.80;59.20
41116;DHT22;26861;51.824;4.682;2024-03-17T07:18:57;17.00;59.30
41116;DHT22;26861;51.824;4.682;2024-03-17T07:21:23;16.90;59.20
41116;DHT22;26861;51.824;4.682;2024-03-17T07:23:48;16.90;59.50
41116;DHT22;26861;51.824;4.682;2024-03-17T07:26:14;16.90;59.40
41116;DHT22;26861;51.824;4.682;2024-03-17T07:28:39;16.90;59.20
41116;DHT22;26861;51.824;4.682;2024-03-17T07:31:06;16.90;59.50
41116;DHT22;26861;51.824;4.682;2024-03-17T07:33:33;16.90;59.30
41116;DHT22;26861;51.824;4.682;2024-03-17T07:35:59;16.30;58.90
41116;DHT22;26861;51.824;4.682;2024-03-17T07:38:29;16.90;57.00
41116;DHT22;26861;51.824;4.682;2024-03-17T07:40:55;16.90;59.80
41116;DHT22;26861;51.824;4.682;2024-03-17T07:43:22;16.90;59.00
41116;DHT22;26861;51.824;4.682;2024-03-17T07:45:56;16.90;59.60
41116;DHT22;26861;51.824;4.682;2024-03-17T07:48:21;16.90;59.40
41116;DHT22;26861;51.824;4.682;2024-03-17T07:50:58;16.90;59.40
41116;DHT22;26861;51.824;4.682;2024-03-17T07:53:24;16.90;55.80
41116;DHT22;26861;51.824;4.682;2024-03-17T07:56:11;16.90;59.50
41116;DHT22;26861;51.824;4.682;2024-03-17T07:58:36;17.00;59.10
41116;DHT22;26861;51.824;4.682;2024-03-17T08:01:04;16.90;59.70
41116;DHT22;26861;51.824;4.682;2024-03-17T08:03:30;17.00;59.30
41116;DHT22;26861;51.824;4.682;2024-03-17T08:05:56;16.90;59.50
41116;DHT22;26861;51.824;4.682;2024-03-17T08:08:22;16.90;59.70
41116;DHT22;26861;51.824;4.682;2024-03-17T08:10:48;17.00;59.50
41116;DHT22;26861;51.824;4.682;2024-03-17T08:13:17;16.90;59.60
41116;DHT22;26861;51.824;4.682;2024-03-17T08:15:44;16.90;59.80
41116;DHT22;26861;51.824;4.682;2024-03-17T08:18:10;16.90;59.90
41116;DHT22;26861;51.824;4.682;2024-03-17T08:20:39;16.90;59.90
41116;DHT22;26861;51.824;4.682;2024-03-17T08:23:12;16.90;56.30
41116;DHT22;26861;51.824;4.682;2024-03-17T08:25:38;17.00;59.40
41116;DHT22;26861;51.824;4.682;2024-03-17T08:28:03;17.10;60.30
41116;DHT22;26861;51.824;4.682;2024-03-17T08:30:29;16.90;59.30
41116;DHT22;26861;51.824;4.682;2024-03-17T08:32:58;16.90;60.10
41116;DHT22;26861;51.824;4.682;2024-03-17T08:35:24;16.90;60.20
41116;DHT22;26861;51.824;4.682;2024-03-17T08:37:49;16.90;60.50
41116;DHT22;26861;51.824;4.682;2024-03-17T08:40:17;16.90;60.10
41116;DHT22;26861;51.824;4.682;2024-03-17T08:42:42;17.00;60.30
41116;DHT22;26861;51.824;4.682;2024-03-17T08:45:08;17.00;60.30
41116;DHT22;26861;51.824;4.682;2024-03-17T08:47:35;17.00;60.00
41116;DHT22;26861;51.824;4.682;2024-03-17T08:50:00;17.00;60.50
41116;DHT22;26861;51.824;4.682;2024-03-17T08:52:32;17.00;60.40
41116;DHT22;26861;51.824;4.682;2024-03-17T08:54:58;17.10;60.00
41116;DHT22;26861;51.824;4.682;2024-03-17T08:57:24;17.00;60.50
41116;DHT22;26861;51.824;4.682;2024-03-17T08:59:50;17.00;60.30
41116;DHT22;26861;51.824;4.682;2024-03-17T09:02:18;17.20;59.80
41116;DHT22;26861;51.824;4.682;2024-03-17T09:04:45;17.00;60.20
41116;DHT22;26861;51.824;4.682;2024-03-17T09:07:10;17.00;60.40
41116;DHT22;26861;51.824;4.682;2024-03-17T09:09:36;17.10;60.50
41116;DHT22;26861;51.824;4.682;2024-03-17T09:12:01;17.30;60.40
41116;DHT22;26861;51.824;4.682;2024-03-17T09:14:29;17.10;60.00
41116;DHT22;26861;51.824;4.682;2024-03-17T09:16:54;17.10;60.30
41116;DHT22;26861;51.824;4.682;2024-03-17T09:19:20;17.10;60.20
41116;DHT22;26861;51.824;4.682;2024-03-17T09:21:46;17.10;60.30
41116;DHT22;26861;51.824;4.682;2024-03-17T09:24:13;17.10;60.40
41116;DHT22;26861;51.824;4.682;2024-03-17T09:26:38;17.10;60.50
41116;DHT22;26861;51.824;4.682;2024-03-17T09:29:07;17.10;57.90
41116;DHT22;26861;51.824;4.682;2024-03-17T09:31:32;17.20;60.30
41116;DHT22;26861;51.824;4.682;2024-03-17T09:34:03;17.10;60.30
41116;DHT22;26861;51.824;4.682;2024-03-17T09:36:29;17.20;60.40
41116;DHT22;26861;51.824;4.682;2024-03-17T09:38:56;17.20;60.50
41116;DHT22;26861;51.824;4.682;2024-03-17T09:41:22;17.20;60.00
41116;DHT22;26861;51.824;4.682;2024-03-17T09:43:55;17.30;60.70
41116;DHT22;26861;51.824;4.682;2024-03-17T09:46:22;17.20;56.90
41116;DHT22;26861;51.824;4.682;2024-03-17T09:48:48;17.20;60.80
41116;DHT22;26861;51.824;4.682;2024-03-17T09:51:20;17.20;60.40
41116;DHT22;26861;51.824;4.682;2024-03-17T09:53:47;17.20;57.00
41116;DHT22;26861;51.824;4.682;2024-03-17T09:56:13;17.20;60.20
41116;DHT22;26861;51.824;4.682;2024-03-17T09:58:40;17.30;60.70
41116;DHT22;26861;51.824;4.682;2024-03-17T10:03:44;17.30;57.60
41116;DHT22;26861;51.824;4.682;2024-03-17T10:06:14;17.20;57.20
41116;DHT22;26861;51.824;4.682;2024-03-17T10:09:22;17.30;60.80
41116;DHT22;26861;51.824;4.682;2024-03-17T10:11:35;17.20;57.30
41116;DHT22;26861;51.824;4.682;2024-03-17T10:14:04;17.20;60.60
41116;DHT22;26861;51.824;4.682;2024-03-17T10:16:31;17.30;60.90
41116;DHT22;26861;51.824;4.682;2024-03-17T10:19:11;17.20;60.90
41116;DHT22;26861;51.824;4.682;2024-03-17T10:21:37;17.30;57.50
41116;DHT22;26861;51.824;4.682;2024-03-17T10:26:41;17.30;57.60
41116;DHT22;26861;51.824;4.682;2024-03-17T10:31:45;17.10;57.40
41116;DHT22;26861;51.824;4.682;2024-03-17T10:34:14;17.30;61.00
41116;DHT22;26861;51.824;4.682;2024-03-17T10:36:40;17.30;60.80
41116;DHT22;26861;51.824;4.682;2024-03-17T10:39:15;17.30;61.00
41116;DHT22;26861;51.824;4.682;2024-03-17T10:41:45;17.40;60.90
41116;DHT22;26861;51.824;4.682;2024-03-17T10:44:11;17.30;61.30
41116;DHT22;26861;51.824;4.682;2024-03-17T10:46:37;17.40;60.90
41116;DHT22;26861;51.824;4.682;2024-03-17T10:49:03;17.40;61.10
41116;DHT22;26861;51.824;4.682;2024-03-17T10:51:29;17.40;60.90
41116;DHT22;26861;51.824;4.682;2024-03-17T10:53:54;17.40;61.20
41116;DHT22;26861;51.824;4.682;2024-03-17T10:56:22;17.40;60.80
41116;DHT22;26861;51.824;4.682;2024-03-17T10:58:48;17.40;61.30
41116;DHT22;26861;51.824;4.682;2024-03-17T11:01:17;17.60;60.70
41116;DHT22;26861;51.824;4.682;2024-03-17T11:03:45;17.40;61.20
41116;DHT22;26861;51.824;4.682;2024-03-17T11:06:12;17.40;60.90
41116;DHT22;26861;51.824;4.682;2024-03-17T11:08:38;17.40;60.80
41116;DHT22;26861;51.824;4.682;2024-03-17T11:11:03;17.50;61.50
41116;DHT22;26861;51.824;4.682;2024-03-17T11:13:30;17.40;61.10
41116;DHT22;26861;51.824;4.682;2024-03-17T11:15:57;17.50;60.80
41116;DHT22;26861;51.824;4.682;2024-03-17T11:18:36;17.50;61.40
41116;DHT22;26861;51.824;4.682;2024-03-17T11:21:04;17.60;58.10
41116;DHT22;26861;51.824;4.682;2024-03-17T11:23:57;17.50;61.30
41116;DHT22;26861;51.824;4.682;2024-03-17T11:26:33;17.50;58.10
41116;DHT22;26861;51.824;4.682;2024-03-17T11:28:59;17.50;58.00
41116;DHT22;26861;51.824;4.682;2024-03-17T11:31:39;17.50;61.70
41116;DHT22;26861;51.824;4.682;2024-03-17T11:36:52;17.60;58.20
41116;DHT22;26861;51.824;4.682;2024-03-17T11:39:19;17.60;61.40
41116;DHT22;26861;51.824;4.682;2024-03-17T11:41:53;17.50;61.40
41116;DHT22;26861;51.824;4.682;2024-03-17T11:46:52;17.50;58.10
41116;DHT22;26861;51.824;4.682;2024-03-17T11:51:47;17.60;61.40
41116;DHT22;26861;51.824;4.682;2024-03-17T11:54:17;17.60;61.70
41116;DHT22;26861;51.824;4.682;2024-03-17T11:56:51;17.60;61.30
41116;DHT22;26861;51.824;4.682;2024-03-17T11:59:17;17.60;58.20
41116;DHT22;26861;51.824;4.682;2024-03-17T12:01:46;17.80;60.80
41116;DHT22;26861;51.824;4.682;2024-03-17T12:04:16;17.70;58.10
41116;DHT22;26861;51.824;4.682;2024-03-17T12:06:58;17.70;61.10
41116;DHT22;26861;51.824;4.682;2024-03-17T12:09:29;17.80;57.70
41116;DHT22;26861;51.824;4.682;2024-03-17T12:14:26;18.00;57.40
41116;DHT22;26861;51.824;4.682;2024-03-17T12:16:55;18.10;60.60
41116;DHT22;26861;51.824;4.682;2024-03-17T12:19:21;18.10;57.20
41116;DHT22;26861;51.824;4.682;2024-03-17T12:21:58;18.10;60.70
41116;DHT22;26861;51.824;4.682;2024-03-17T12:24:29;18.10;60.30
41116;DHT22;26861;51.824;4.682;2024-03-17T12:26:55;18.10;57.40
41116;DHT22;26861;51.824;4.682;2024-03-17T12:29:25;18.20;60.80
41116;DHT22;26861;51.824;4.682;2024-03-17T12:31:53;18.10;60.80
41116;DHT22;26861;51.824;4.682;2024-03-17T12:34:19;18.10;61.10
41116;DHT22;26861;51.824;4.682;2024-03-17T12:36:45;18.10;61.00
41116;DHT22;26861;51.824;4.682;2024-03-17T12:39:15;18.10;61.00
41116;DHT22;26861;51.824;4.682;2024-03-17T12:41:44;18.10;61.00
41116;DHT22;26861;51.824;4.682;2024-03-17T12:44:21;18.80;61.60
41116;DHT22;26861;51.824;4.682;2024-03-17T12:46:47;18.10;57.90
41116;DHT22;26861;51.824;4.682;2024-03-17T12:49:13;18.20;61.40
41116;DHT22;26861;51.824;4.682;2024-03-17T12:51:38;18.20;61.20
41116;DHT22;26861;51.824;4.682;2024-03-17T12:54:11;18.30;61.80
41116;DHT22;26861;51.824;4.682;2024-03-17T12:56:37;18.30;58.20
41116;DHT22;26861;51.824;4.682;2024-03-17T12:59:21;18.30;58.70
41116;DHT22;26861;51.824;4.682;2024-03-17T13:02:07;18.40;61.10
41116;DHT22;26861;51.824;4.682;2024-03-17T13:04:35;18.40;61.30
41116;DHT22;26861;51.824;4.682;2024-03-17T13:07:09;18.40;61.20
41116;DHT22;26861;51.824;4.682;2024-03-17T13:09:35;18.50;58.00
41116;DHT22;26861;51.824;4.682;2024-03-17T13:12:01;18.60;61.00
41116;DHT22;26861;51.824;4.682;2024-03-17T13:14:26;18.30;60.50
41116;DHT22;26861;51.824;4.682;2024-03-17T13:16:52;18.70;60.40
41116;DHT22;26861;51.824;4.682;2024-03-17T13:19:17;18.70;60.30
41116;DHT22;26861;51.824;4.682;2024-03-17T13:21:43;18.70;60.50
41116;DHT22;26861;51.824;4.682;2024-03-17T13:24:08;18.70;60.60
41116;DHT22;26861;51.824;4.682;2024-03-17T13:26:34;18.80;60.30
41116;DHT22;26861;51.824;4.682;2024-03-17T13:28:59;18.80;60.10
41116;DHT22;26861;51.824;4.682;2024-03-17T13:31:24;18.80;60.70
41116;DHT22;26861;51.824;4.682;2024-03-17T13:33:50;18.80;60.60
41116;DHT22;26861;51.824;4.682;2024-03-17T13:36:16;18.80;61.70
41116;DHT22;26861;51.824;4.682;2024-03-17T13:38:42;18.70;61.00
41116;DHT22;26861;51.824;4.682;2024-03-17T13:41:07;18.70;60.80
41116;DHT22;26861;51.824;4.682;2024-03-17T13:43:34;18.80;60.60
41116;DHT22;26861;51.824;4.682;2024-03-17T13:45:59;18.70;61.40
41116;DHT22;26861;51.824;4.682;2024-03-17T13:48:25;18.40;61.10
41116;DHT22;26861;51.824;4.682;2024-03-17T13:50:50;18.70;61.30
41116;DHT22;26861;51.824;4.682;2024-03-17T13:53:16;18.70;61.70
41116;DHT22;26861;51.824;4.682;2024-03-17T13:55:41;18.70;61.50
41116;DHT22;26861;51.824;4.682;2024-03-17T13:58:07;18.70;61.70
41116;DHT22;26861;51.824;4.682;2024-03-17T14:00:32;18.60;61.80
41116;DHT22;26861;51.824;4.682;2024-03-17T14:03:03;18.70;61.20
41116;DHT22;26861;51.824;4.682;2024-03-17T14:05:28;18.70;61.60
41116;DHT22;26861;51.824;4.682;2024-03-17T14:07:54;18.70;62.00
41116;DHT22;26861;51.824;4.682;2024-03-17T14:10:21;18.80;62.30
41116;DHT22;26861;51.824;4.682;2024-03-17T14:12:47;18.60;62.00
41116;DHT22;26861;51.824;4.682;2024-03-17T14:15:13;18.60;62.00
41116;DHT22;26861;51.824;4.682;2024-03-17T14:17:42;18.60;62.10
41116;DHT22;26861;51.824;4.682;2024-03-17T14:20:09;18.60;58.90
41116;DHT22;26861;51.824;4.682;2024-03-17T14:22:40;18.60;61.80
41116;DHT22;26861;51.824;4.682;2024-03-17T14:25:10;18.60;59.20
41116;DHT22;26861;51.824;4.682;2024-03-17T14:27:38;18.70;62.30
41116;DHT22;26861;51.824;4.682;2024-03-17T14:30:04;18.70;61.80
41116;DHT22;26861;51.824;4.682;2024-03-17T14:32:30;18.70;61.20
41116;DHT22;26861;51.824;4.682;2024-03-17T14:34:56;18.70;62.60
41116;DHT22;26861;51.824;4.682;2024-03-17T14:37:21;19.30;62.40
41116;DHT22;26861;51.824;4.682;2024-03-17T14:39:48;18.70;62.40
41116;DHT22;26861;51.824;4.682;2024-03-17T14:42:13;18.70;62.10
41116;DHT22;26861;51.824;4.682;2024-03-17T14:44:39;18.70;62.30
41116;DHT22;26861;51.824;4.682;2024-03-17T14:47:04;18.70;62.50
41116;DHT22;26861;51.824;4.682;2024-03-17T14:49:30;18.60;62.30
41116;DHT22;26861;51.824;4.682;2024-03-17T14:51:56;18.70;62.30
41116;DHT22;26861;51.824;4.682;2024-03-17T14:54:22;18.70;62.10
41116;DHT22;26861;51.824;4.682;2024-03-17T14:56:47;18.70;62.40
41116;DHT22;26861;51.824;4.682;2024-03-17T14:59:13;18.70;62.20
41116;DHT22;26861;51.824;4.682;2024-03-17T15:01:42;18.70;61.90
41116;DHT22;26861;51.824;4.682;2024-03-17T15:04:08;18.60;62.20
41116;DHT22;26861;51.824;4.682;2024-03-17T15:06:33;18.60;62.40
41116;DHT22;26861;51.824;4.682;2024-03-17T15:08:59;18.60;62.80
41116;DHT22;26861;51.824;4.682;2024-03-17T15:11:25;18.60;62.30
41116;DHT22;26861;51.824;4.682;2024-03-17T15:13:50;18.70;62.70
41116;DHT22;26861;51.824;4.682;2024-03-17T15:16:16;18.70;62.80
41116;DHT22;26861;51.824;4.682;2024-03-17T15:18:41;18.60;62.50
41116;DHT22;26861;51.824;4.682;2024-03-17T15:21:08;18.60;62.60
41116;DHT22;26861;51.824;4.682;2024-03-17T15:23:34;18.70;62.60
41116;DHT22;26861;51.824;4.682;2024-03-17T15:26:03;18.60;62.60
41116;DHT22;26861;51.824;4.682;2024-03-17T15:28:35;18.60;59.50
41116;DHT22;26861;51.824;4.682;2024-03-17T15:31:04;18.70;62.80
41116;DHT22;26861;51.824;4.682;2024-03-17T15:33:31;18.70;59.50
41116;DHT22;26861;51.824;4.682;2024-03-17T15:36:03;18.40;62.70
41116;DHT22;26861;51.824;4.682;2024-03-17T15:38:44;18.70;59.60
41116;DHT22;26861;51.824;4.682;2024-03-17T15:41:10;18.60;62.60
41116;DHT22;26861;51.824;4.682;2024-03-17T15:43:36;18.60;62.50
41116;DHT22;26861;51.824;4.682;2024-03-17T15:46:22;18.70;63.50
41116;DHT22;26861;51.824;4.682;2024-03-17T15:48:48;18.70;59.40
41116;DHT22;26861;51.824;4.682;2024-03-17T15:51:14;18.60;62.90
41116;DHT22;26861;51.824;4.682;2024-03-17T15:53:40;18.60;62.70